Metar Cercanos

 

LEPA - Palma De Mallorc, Spain
Distance from station: ONO 38km
Actualización: 25/05/2018 16:30
Despejado
Despejado
 Viento del O
Viento: O 20 km/h
Temperatura: 24°C
Rocío: 18°C
Humedad: 69%
Barómetro: 1012 hPa
Resumen: Despejado
Visibility: greater than 10 km
2018/05/25 14:30 LEPA 251430Z 26011KT CAVOK 24/18 Q1012 NOSIG
LEMH - Mahon/Menorca Is, Spain
Distance from station: ENE 105km
Actualización: 25/05/2018 16:30
Despejado
Despejado
 Viento del SE
Viento: SE 24 km/h
Temperatura: 22°C
Rocío: 16°C
Humedad: 69%
Barómetro: 1014 hPa
Resumen: Despejado
Visibility: greater than 10 km
2018/05/25 14:30 LEMH 251430Z 13013KT 100V160 CAVOK 22/16 Q1014
 
LEIB - Ibiza/Es Codola, Spain
Distance from station: OSO 165km
Actualización: 25/05/2018 16:30
Muy nuboso
Muy nuboso
 Viento del S
Viento: S 15 km/h
Temperatura: 23°C
Rocío: 18°C
Humedad: 74%
Barómetro: 1011 hPa
Clouds: Muy nuboso
Visibility: 10 km
Cloud details: Few Clouds 213 m
Muy nuboso 305 m
2018/05/25 14:30 LEIB 251430Z 17008KT 120V240 9999 FEW007 BKN010 23/18 Q1011 NOSIG
LEBL - Barcelona Airpor, Spain
Distance from station: NNO 225km
Actualización: 25/05/2018 16:30
Despejado
Despejado
 Viento del ENE
Viento: ENE 43 km/h
Temperatura: 24°C
Rocío: 11°C
Humedad: 44%
Barómetro: 1014 hPa
Resumen: Despejado
Visibility: greater than 10 km
2018/05/25 14:30 LEBL 251430Z 07023KT CAVOK 24/11 Q1014 NOSIG
 
LEVC - Valencia (civ/Mi, Spain
Distance from station: NO 188km
Actualización: 25/05/2018 16:30
Muy nuboso
Muy nuboso
 Viento del NE
Viento: NE 20 km/h
Temperatura: 24°C
Rocío: 16°C
Humedad: 61%
Barómetro: 1011 hPa
Clouds: Muy nuboso
Visibility: 10 km
Cloud details: Parcialmente nuboso 762 m
Muy nuboso 1219 m
2018/05/25 14:30 LEVC 251430Z 05011KT 020V090 9999 SCT025 BKN040 24/16 Q1011 NOSIG
LEGE - Gerona/Costa Bra, Spain
Distance from station: N 276km
Actualización: 25/05/2018 16:30
Few Clouds
Few Clouds
 Viento del SE
Viento: SE 15 km/h
Temperatura: 23°C
Rocío: 9°C
Humedad: 41%
Barómetro: 1015 hPa
Clouds: Few Clouds
Visibility: 10 km
Cloud details: Few Clouds 1219 m
2018/05/25 14:30 LEGE 251430Z 14008KT 9999 FEW040 23/09 Q1015
 
LEAL - Alicante/El Alte, Spain
Distance from station: OSO 344km
Actualización: 25/05/2018 16:30
Despejado
Despejado
 Viento del SSE
Viento: SSE 11 km/h
Temperatura: 24°C
Rocío: 15°C
Humedad: 57%
Barómetro: 1011 hPa
Resumen: Despejado
Visibility: greater than 10 km
2018/05/25 14:30 LEAL 251430Z 15006KT 080V230 CAVOK 24/15 Q1011 NOSIG
LEAM - Almeria Airport, Spain
Distance from station: SSO 56km
Actualización: 25/05/2018 16:30
Few Clouds
Few Clouds
 Viento del SO
Viento: SO 33 km/h
Temperatura: 22°C
Rocío: 16°C
Humedad: 69%
Barómetro: 1011 hPa
Clouds: Few Clouds
Visibility: 10 km
Cloud details: Few Clouds 1524 m
2018/05/25 14:30 LEAM 251430Z 22018KT 9999 FEW050 22/16 Q1011
 
LEZG - Zaragoza (mil/Ci, Spain
Distance from station: NO 431km
Actualización: 25/05/2018 16:30
Muy nuboso
Muy nuboso
 Viento del ENE
Viento: ENE 13 km/h
Temperatura: 27°C
Rocío: 9°C
Humedad: 32%
Barómetro: 1010 hPa
Clouds: Muy nuboso
Visibility: 10 km
Cloud details: Muy nuboso 2438 m
2018/05/25 14:30 LEZG 251430Z 07007KT 050V110 9999 BKN080 27/09 Q1010
LEMD - Madrid/Barajas, Spain
Distance from station: ONO 234km
Actualización: 25/05/2018 16:30
Parcialmente nuboso
Parcialmente nuboso
 Viento del SSE
Viento: SSE 6 km/h
Temperatura: 19°C
Rocío: 12°C
Humedad: 64%
Barómetro: 1013 hPa
Clouds: Parcialmente nuboso
Visibility: 10 km
Cloud details: Few Clouds 914 m
Parcialmente nuboso 2134 m
2018/05/25 14:30 LEMD 251430Z 16003KT 9999 FEW030TCU SCT070 19/12 Q1013 NOSIG
 
LEGR - Granada Airport, Spain
Distance from station: OSO 62km
Actualización: 25/05/2018 16:30
Parcialmente nuboso
Parcialmente nuboso
 Viento del O
Viento: O 20 km/h
Temperatura: 23°C
Rocío: 7°C
Humedad: 36%
Barómetro: 1013 hPa
Clouds: Parcialmente nuboso
Visibility: 10 km
Cloud details: Few Clouds 1067 m
Parcialmente nuboso 1829 m
2018/05/25 14:30 LEGR 251430Z 27011KT 240V310 9999 FEW035 SCT060 23/07 Q1013
LEMG - Malaga (civ/Mil), Spain
Distance from station: OSO 227km
Actualización: 25/05/2018 16:30
Parcialmente nuboso
Parcialmente nuboso
 Viento del S
Viento: S 19 km/h, Racha: 37 km/h
Temperatura: 23°C
Rocío: 13°C
Humedad: 53%
Barómetro: 1012 hPa
Clouds: Parcialmente nuboso
Visibility: 10 km
Cloud details: Few Clouds 762 m
Parcialmente nuboso 1981 m
2018/05/25 14:30 LEMG 251430Z 18010G20KT 110V240 9999 FEW025 SCT065 23/13 Q1012 NOSIG
 
LEZL - Sevilla (civ/Mil, Spain
Distance from station: S 318km
Actualización: 25/05/2018 16:30
Parcialmente nuboso
Parcialmente nuboso
 Viento del OSO
Viento: OSO 20 km/h
Temperatura: 23°C
Rocío: 10°C
Humedad: 44%
Barómetro: 1012 hPa
Clouds: Parcialmente nuboso
Visibility: 10 km
Cloud details: Parcialmente nuboso 1372 m
2018/05/25 14:30 LEZL 251430Z 24011KT 200V290 9999 SCT045 23/10 Q1012 NOSIG
LEVT - Vitoria, Spain
Distance from station: NO 226km
Actualización: 25/05/2018 16:30
Few Clouds
Few Clouds
 Viento del N
Viento: N 13 km/h
Temperatura: 20°C
Rocío: 15°C
Humedad: 73%
Barómetro: 1013 hPa
Clouds: Few Clouds
Visibility: 10 km
Cloud details: Few Clouds 549 m
2018/05/25 14:30 LEVT 251430Z 36007KT 300V030 9999 FEW018 20/15 Q1013
 
LEBB - Bilbao/Sondica, Spain
Distance from station: NNO 235km
Actualización: 25/05/2018 16:30
Few Clouds
Few Clouds
 Viento del ONO
Viento: ONO 9 km/h
Temperatura: 20°C
Rocío: 16°C
Humedad: 78%
Barómetro: 1013 hPa
Clouds: Few Clouds
Visibility: 10 km
Cloud details: Few Clouds 518 m
2018/05/25 14:30 LEBB 251430Z 30005KT 260V330 9999 FEW017 20/16 Q1013 TEMPO 4000 RA BKN010
LESO - San Sebastian/Fu, Spain
Distance from station: N 231km
Actualización: 25/05/2018 16:30
Few Clouds
Few Clouds
 Viento del NNE
Viento: NNE 7 km/h
Temperatura: 22°C
Rocío: 16°C
Humedad: 69%
Barómetro: 1013 hPa
Clouds: Few Clouds
Visibility: 10 km
Cloud details: Few Clouds 1067 m
2018/05/25 14:30 LESO 251430Z 03004KT 330V060 9999 FEW035 22/16 Q1013
 
LEVD - Valladolid(Mil/C, Spain
Distance from station: ONO 239km
Actualización: 25/05/2018 16:30
Few Clouds
Few Clouds
 Viento del E
Viento: E 9 km/h
Temperatura: 14°C
Rocío: 9°C
Humedad: 72%
Barómetro: 1013 hPa
Clouds: Few Clouds
Visibility: 10 km
Cloud details: Few Clouds 1372 m
2018/05/25 14:30 LEVD 251430Z 10005KT 070V140 9999 FEW045 14/09 Q1013
LESA - Salamanca (civ/M, Spain
Distance from station: ONO 349km
Actualización: 25/05/2018 16:30
Light thunderstorm, Lluvia, Parcialmente nuboso
Light thunderstorm, Lluvia, Parcialmente nuboso
 Viento del O
Viento: O 19 km/h
Temperatura: 12°C
Rocío: 10°C
Humedad: 88%
Barómetro: 1014 hPa
Resumen: Light thunderstorm, Lluvia
Clouds: Parcialmente nuboso
Visibility: 10 km
Cloud details: Few Clouds 671 m
Few Clouds 914 m
Parcialmente nuboso 1219 m
2018/05/25 14:30 LESA 251430Z 28010KT 9999 -TSRA FEW022 FEW030CB SCT040 12/10 Q1014
 
LEXJ - Santander/Paraya, Spain
Distance from station: NNO 247km
Actualización: 25/05/2018 16:30
Muy nuboso
Muy nuboso
 Viento del calm
Viento: Calma
Temperatura: 19°C
Rocío: 18°C
Humedad: 94%
Barómetro: 1013 hPa
Clouds: Muy nuboso
Visibility: 10 km
Cloud details: Parcialmente nuboso 762 m
Muy nuboso 2591 m
2018/05/25 14:30 LEXJ 251430Z 00000KT 9999 SCT025 BKN085 19/18 Q1013
LEAS - Asturias/Aviles, Spain
Distance from station: NO 214km
Actualización: 25/05/2018 16:30
Mist, Light drizzle, Cubierto
Mist, Light drizzle, Cubierto
 Viento del NE
Viento: NE 7 km/h
Temperatura: 15°C
Rocío: 15°C
Humedad: 100%
Barómetro: 1014 hPa
Resumen: Mist, Light drizzle
Clouds: Cubierto
Visibility: 1 km
Cloud details: Cubierto 30 m
2018/05/25 14:30 LEAS 251430Z 04004KT 320V110 1200 R29/0900U R11/1000N BR -DZ VV001 15/15 Q1014 TEMPO 3000 BR
 
LECO - La Coruna/Alvedr, Spain
Distance from station: ONO 222km
Actualización: 01/01/1970 01:00
NOT Current
unable to load LECO data RC=404 Not Found
unable to load LECO data RC=404 Not Found
 
LEVX - Vigo/Peinador, Spain
Distance from station: O 214km
Actualización: 01/01/1970 01:00
NOT Current
unable to load LEVX data RC=404 Not Found
unable to load LEVX data RC=404 Not Found